Time;durP1;ratioP1;P1;durP2;ratioP2;P2;SDS_P1;SDS_P2;PMS_P1;PMS_P2;Temp;Humidity;BMP_temperature;BMP_pressure;BME280_temperature;BME280_humidity;BME280_pressure;Samples;Min_cycle;Max_cycle;Signal;HPM_P1;HPM_P2
2023/03/09 00:02:00;;;;;;;1.70;0.80;;;;;;;20.43;46.30;94497.69;10458347;28;20416;-49
2023/03/09 00:07:19;;;;;;;1.25;0.80;;;;;;;20.41;46.31;94500.00;10457506;28;20049;-50
2023/03/09 00:12:39;;;;;;;1.65;0.82;;;;;;;20.40;46.36;94509.25;10457890;28;20390;-47
2023/03/09 00:17:59;;;;;;;1.25;0.80;;;;;;;20.37;46.29;94489.19;10455742;28;20106;-50
2023/03/09 00:23:19;;;;;;;1.10;0.80;;;;;;;20.36;46.36;94479.50;10457328;28;20075;-49
2023/03/09 00:28:40;;;;;;;2.30;1.00;;;;;;;20.34;46.37;94474.47;10457101;28;20045;-50
2023/03/09 00:34:00;;;;;;;0.70;0.60;;;;;;;20.32;46.34;94465.97;10456653;28;20060;-48
2023/03/09 00:39:21;;;;;;;1.30;0.80;;;;;;;20.31;46.24;94459.03;10456460;28;20056;-48
2023/03/09 00:44:41;;;;;;;1.40;0.85;;;;;;;20.30;46.18;94462.13;10470050;28;20447;-47
2023/03/09 00:50:01;;;;;;;1.33;0.70;;;;;;;20.29;46.21;94445.13;10456609;28;20060;-51
2023/03/09 00:55:20;;;;;;;1.15;0.80;;;;;;;20.27;46.11;94439.34;10456569;28;20076;-51
2023/03/09 01:00:39;;;;;;;1.40;1.00;;;;;;;20.26;46.07;94437.78;10469833;28;20037;-48
2023/03/09 01:06:00;;;;;;;1.30;0.90;;;;;;;20.24;46.00;94437.41;10456403;28;20053;-49
2023/03/09 01:11:19;;;;;;;1.73;0.90;;;;;;;20.24;46.07;94442.03;10469551;28;20051;-48
2023/03/09 01:16:39;;;;;;;1.33;0.70;;;;;;;20.23;46.01;94443.97;10442403;28;20049;-50
2023/03/09 01:21:58;;;;;;;1.73;0.88;;;;;;;20.22;45.99;94447.81;10464808;28;20076;-47
2023/03/09 01:27:18;;;;;;;1.33;0.80;;;;;;;20.20;46.02;94442.03;10464160;28;20048;-47
2023/03/09 01:32:38;;;;;;;1.00;0.60;;;;;;;20.19;46.06;94437.00;10464388;28;20061;-48
2023/03/09 01:37:57;;;;;;;1.50;0.63;;;;;;;20.17;45.98;94426.59;10463754;28;20053;-47
2023/03/09 01:43:27;;;;;;;0.88;0.70;;;;;;;20.15;45.93;94418.09;10463663;28;20053;-48
2023/03/09 01:48:53;;;;;;;1.55;0.80;;;;;;;20.11;45.96;94407.28;10475972;28;20047;-50
2023/03/09 01:54:18;;;;;;;0.70;0.70;;;;;;;20.11;45.98;94406.50;10462921;28;20095;-47
2023/03/09 01:59:39;;;;;;;0.73;0.73;;;;;;;20.10;45.86;94394.16;10463010;28;20052;-47
2023/03/09 02:05:03;;;;;;;0.73;0.57;;;;;;;20.09;45.80;94387.97;10434236;28;20448;-55
2023/03/09 02:10:37;;;;;;;0.93;0.75;;;;;;;20.06;45.94;94383.34;10448178;28;20397;-55
2023/03/09 02:15:57;;;;;;;0.60;0.60;;;;;;;20.05;45.83;94381.81;10447284;28;20471;-56
2023/03/09 02:21:42;;;;;;;0.60;0.60;;;;;;;20.03;45.87;94386.81;10462759;28;20226;-56
2023/03/09 02:27:19;;;;;;;1.50;0.68;;;;;;;20.01;45.76;94375.59;10446886;28;20050;-55
2023/03/09 02:32:39;;;;;;;1.15;0.60;;;;;;;20.00;45.78;94368.66;10433202;28;20053;-54
2023/03/09 02:37:59;;;;;;;0.88;0.70;;;;;;;20.00;45.73;94365.19;10446762;28;20049;-55
2023/03/09 02:43:22;;;;;;;1.10;0.63;;;;;;;19.97;45.79;94364.00;10459997;28;20098;-55
2023/03/09 02:48:41;;;;;;;0.60;0.60;;;;;;;19.95;45.79;94350.13;10460704;28;20045;-55
2023/03/09 02:54:01;;;;;;;0.65;0.65;;;;;;;19.94;45.80;94354.00;10461663;28;20107;-55
2023/03/09 02:59:21;;;;;;;0.73;0.68;;;;;;;19.93;45.67;94347.81;10446343;28;20045;-55
2023/03/09 03:04:41;;;;;;;1.00;0.60;;;;;;;19.91;45.83;94343.94;10446165;28;20057;-55
2023/03/09 03:10:00;;;;;;;1.27;0.57;;;;;;;19.90;45.73;94342.41;10460509;28;20060;-55
2023/03/09 03:15:20;;;;;;;0.60;0.60;;;;;;;19.88;45.76;94334.69;10460178;28;20094;-55
2023/03/09 03:20:40;;;;;;;1.20;0.60;;;;;;;19.86;45.75;94328.13;10460378;28;20057;-55
2023/03/09 03:26:05;;;;;;;1.10;0.60;;;;;;;19.85;45.73;94330.03;10459367;28;20060;-55
2023/03/09 03:31:25;;;;;;;0.80;0.50;;;;;;;19.84;45.73;94320.41;10444537;28;20111;-56
2023/03/09 03:36:47;;;;;;;0.82;0.55;;;;;;;19.83;45.71;94315.38;10444594;28;20060;-55
2023/03/09 03:42:07;;;;;;;1.08;0.60;;;;;;;19.81;45.76;94307.66;10442768;28;20060;-55
2023/03/09 03:47:27;;;;;;;0.60;0.60;;;;;;;19.79;45.65;94312.69;10444069;28;20060;-55
2023/03/09 03:52:47;;;;;;;0.75;0.60;;;;;;;19.77;45.63;94323.09;10458488;28;20061;-55
2023/03/09 03:58:07;;;;;;;0.50;0.50;;;;;;;19.75;45.60;94334.28;10443673;28;20053;-55
2023/03/09 04:03:28;;;;;;;0.52;0.40;;;;;;;19.75;45.59;94336.97;10443966;28;20105;-55
2023/03/09 04:08:48;;;;;;;0.63;0.63;;;;;;;19.73;45.63;94333.91;10458292;28;20049;-55
2023/03/09 04:14:08;;;;;;;0.65;0.50;;;;;;;19.71;45.55;94338.13;10458288;28;20060;-55
2023/03/09 04:19:28;;;;;;;0.65;0.65;;;;;;;19.69;45.65;94351.25;10442304;28;20481;-55
2023/03/09 04:24:48;;;;;;;1.10;0.73;;;;;;;19.69;45.64;94352.00;10442591;28;20052;-55
2023/03/09 04:30:09;;;;;;;0.50;0.50;;;;;;;19.67;45.65;94299.53;10442295;28;20130;-55
2023/03/09 04:35:29;;;;;;;0.73;0.50;;;;;;;19.66;45.73;94277.16;10428277;28;20049;-55
2023/03/09 04:40:51;;;;;;;0.65;0.65;;;;;;;19.64;45.61;94260.56;10442172;28;20057;-55
2023/03/09 04:46:11;;;;;;;0.60;0.60;;;;;;;19.63;45.65;94252.84;10457254;28;20053;-54
2023/03/09 04:51:31;;;;;;;0.80;0.70;;;;;;;19.62;45.81;94254.00;10441104;28;20064;-55
2023/03/09 04:56:52;;;;;;;0.65;0.50;;;;;;;19.60;45.60;94254.41;10457006;28;20057;-55
2023/03/09 05:02:15;;;;;;;0.50;0.50;;;;;;;19.59;45.59;94262.88;10441610;28;20053;-55
2023/03/09 05:07:37;;;;;;;0.57;0.50;;;;;;;19.58;45.69;94269.44;10441962;28;20044;-55
2023/03/09 05:12:59;;;;;;;0.63;0.40;;;;;;;19.56;45.66;94272.50;10441225;28;20485;-55
2023/03/09 05:18:21;;;;;;;0.40;0.40;;;;;;;19.55;45.69;94289.88;10441450;28;20052;-55
2023/03/09 05:23:42;;;;;;;0.40;0.40;;;;;;;19.54;45.67;94277.53;10441471;28;20057;-55
2023/03/09 05:43:28;;;;;;;0.40;0.40;;;;;;;19.51;45.65;94287.16;10711911;22;20457;-55
2023/03/09 05:48:48;;;;;;;0.50;0.50;;;;;;;19.54;45.92;94291.03;10497745;28;20056;-55
2023/03/09 05:54:08;;;;;;;0.50;0.50;;;;;;;19.58;45.90;94293.72;10495830;28;20048;-55
2023/03/09 05:59:31;;;;;;;0.65;0.40;;;;;;;19.58;45.81;94286.41;10482316;28;20044;-55
2023/03/09 06:04:51;;;;;;;0.40;0.40;;;;;;;19.59;46.14;94292.59;10485367;28;20052;-55
2023/03/09 06:10:12;;;;;;;0.93;0.50;;;;;;;19.62;46.12;94308.78;10490090;28;20131;-55
2023/03/09 06:15:32;;;;;;;1.33;0.68;;;;;;;19.67;46.03;94307.63;10489725;28;20118;-54
2023/03/09 06:20:52;;;;;;;0.43;0.40;;;;;;;19.72;46.03;94316.16;10518028;28;20044;-55
2023/03/09 06:26:13;;;;;;;0.60;0.50;;;;;;;19.77;46.25;94325.03;10503112;28;20056;-55
2023/03/09 06:31:37;;;;;;;0.73;0.50;;;;;;;19.82;46.07;94340.88;10488968;28;20561;-55
2023/03/09 06:36:57;;;;;;;0.38;0.38;;;;;;;19.86;46.02;94355.16;10489191;28;20055;-56
2023/03/09 06:42:17;;;;;;;0.40;0.40;;;;;;;19.78;43.67;94373.28;10504230;28;20499;-55
2023/03/09 06:47:41;;;;;;;0.30;0.30;;;;;;;19.55;41.26;94371.66;10489434;28;20110;-55
2023/03/09 06:53:03;;;;;;;0.32;0.32;;;;;;;19.63;42.52;94385.94;10488600;28;20049;-55
2023/03/09 06:58:23;;;;;;;0.38;0.38;;;;;;;19.74;43.14;94394.13;10487855;28;20094;-55
2023/03/09 07:03:42;;;;;;;0.40;0.40;;;;;;;19.84;42.97;94406.09;10487799;28;20053;-55
2023/03/09 07:09:03;;;;;;;0.32;0.32;;;;;;;19.87;43.14;94413.41;10502663;28;20059;-53
2023/03/09 07:14:22;;;;;;;0.40;0.40;;;;;;;19.93;43.15;94423.50;10516013;28;20047;-55
2023/03/09 07:19:42;;;;;;;0.85;0.57;;;;;;;19.97;43.31;94444.31;10501563;28;20060;-55
2023/03/09 07:25:01;;;;;;;0.60;0.57;;;;;;;19.97;43.31;94452.44;10501682;28;20057;-55
2023/03/09 07:30:21;;;;;;;0.75;0.50;;;;;;;19.98;43.37;94481.00;10501390;28;20075;-55
2023/03/09 07:35:41;;;;;;;1.75;0.40;;;;;;;19.99;43.55;94485.25;10515523;28;20487;-54
2023/03/09 07:41:01;;;;;;;0.40;0.40;;;;;;;20.03;43.60;94499.53;10502023;28;20056;-55
2023/03/09 07:46:20;;;;;;;0.65;0.50;;;;;;;20.07;43.80;94520.03;10501424;28;20499;-55
2023/03/09 07:51:40;;;;;;;0.32;0.32;;;;;;;20.12;43.78;94554.00;10501061;28;20059;-55
2023/03/09 07:56:59;;;;;;;0.77;0.50;;;;;;;20.17;43.93;94577.19;10501194;28;20114;-55
2023/03/09 08:02:19;;;;;;;0.40;0.30;;;;;;;20.20;43.82;94577.19;10500284;28;20049;-55
2023/03/09 08:07:42;;;;;;;0.40;0.35;;;;;;;20.25;43.72;94603.13;10500312;28;20048;-55
2023/03/09 08:13:01;;;;;;;0.30;0.30;;;;;;;20.28;43.95;94619.31;10514387;28;20044;-55
2023/03/09 08:18:21;;;;;;;0.50;0.50;;;;;;;20.33;44.08;94642.53;10513241;28;20106;-55
2023/03/09 08:23:41;;;;;;;0.55;0.32;;;;;;;20.37;44.25;94650.66;10500624;28;20051;-55
2023/03/09 08:29:00;;;;;;;0.80;0.50;;;;;;;20.41;44.34;94667.66;10499348;28;20056;-55
2023/03/09 08:34:20;;;;;;;0.55;0.38;;;;;;;20.43;44.52;94676.94;10498307;28;20450;-55
2023/03/09 08:39:39;;;;;;;0.32;0.32;;;;;;;20.42;44.43;94699.72;10511394;28;20048;-55
2023/03/09 08:44:59;;;;;;;0.82;0.40;;;;;;;20.40;44.60;94714.78;10497442;28;20056;-56
2023/03/09 08:50:18;;;;;;;0.30;0.30;;;;;;;20.42;44.72;94732.16;10497860;28;20056;-55
2023/03/09 08:55:38;;;;;;;0.40;0.40;;;;;;;20.43;44.76;94752.66;10497642;28;20082;-55
2023/03/09 09:00:59;;;;;;;0.95;0.40;;;;;;;20.45;44.71;94755.78;10497579;28;20052;-56
2023/03/09 09:06:19;;;;;;;0.50;0.40;;;;;;;20.48;44.93;94778.56;10497000;28;20094;-55
2023/03/09 09:11:39;;;;;;;1.90;0.40;;;;;;;20.50;45.05;94792.50;10497467;28;20067;-54
2023/03/09 09:16:59;;;;;;;1.10;0.40;;;;;;;20.53;45.14;94800.63;10497230;28;20044;-55
2023/03/09 09:22:19;;;;;;;1.75;0.38;;;;;;;20.56;45.26;94815.31;10496609;28;20102;-55
2023/03/09 09:27:38;;;;;;;0.50;0.45;;;;;;;20.57;45.13;94833.13;10496517;28;20560;-56
2023/03/09 09:32:58;;;;;;;1.52;0.40;;;;;;;20.60;45.10;94832.41;10496429;28;20044;-56
2023/03/09 09:38:18;;;;;;;0.40;0.40;;;;;;;20.62;45.20;94840.91;10496916;28;20049;-56
2023/03/09 09:43:37;;;;;;;1.13;0.43;;;;;;;20.64;45.32;94854.84;10504399;28;20060;-54
2023/03/09 09:48:59;;;;;;;0.95;0.45;;;;;;;20.66;45.50;94868.75;10502841;28;20055;-56
2023/03/09 09:54:38;;;;;;;0.60;0.50;;;;;;;20.67;45.60;94881.13;10503750;28;20056;-54
2023/03/09 10:00:13;;;;;;;0.60;0.30;;;;;;;20.68;45.63;94893.50;10503452;28;20527;-56
2023/03/09 10:05:51;;;;;;;1.23;0.40;;;;;;;20.69;45.47;94900.44;10517486;28;20048;-55
2023/03/09 10:11:29;;;;;;;1.08;0.50;;;;;;;20.69;45.44;94913.22;10488727;28;20101;-55
2023/03/09 10:17:03;;;;;;;1.20;0.40;;;;;;;20.70;45.35;94917.50;10488420;28;20454;-56
2023/03/09 10:22:24;;;;;;;0.60;0.32;;;;;;;20.71;45.23;94929.84;10502699;28;20057;-55
2023/03/09 10:27:55;;;;;;;2.15;0.40;;;;;;;20.71;45.17;94933.31;10503280;28;20075;-56
2023/03/09 10:33:18;;;;;;;2.40;0.45;;;;;;;20.70;45.44;94937.19;10502988;28;20059;-56
2023/03/09 10:38:38;;;;;;;0.85;0.50;;;;;;;20.71;45.41;94946.84;10487518;28;20055;-56
2023/03/09 10:43:58;;;;;;;0.90;0.50;;;;;;;20.72;45.49;94961.19;10510250;28;20064;-55
2023/03/09 10:49:18;;;;;;;0.65;0.30;;;;;;;20.72;45.34;94969.28;10501834;28;20052;-55
2023/03/09 10:54:39;;;;;;;1.15;0.30;;;;;;;20.73;45.42;94987.06;10501476;28;20113;-55
2023/03/09 11:00:15;;;;;;;4.15;0.45;;;;;;;20.74;45.20;94991.34;10501166;28;20049;-57
2023/03/09 11:05:35;;;;;;;0.40;0.35;;;;;;;20.73;44.57;94998.66;10501686;28;20048;-56
2023/03/09 11:11:06;;;;;;;0.85;0.40;;;;;;;20.72;43.96;94991.72;10501449;28;20056;-55
2023/03/09 11:16:36;;;;;;;0.98;0.30;;;;;;;20.73;44.01;95009.50;10486040;28;20049;-56
2023/03/09 11:21:55;;;;;;;2.05;0.40;;;;;;;20.72;43.60;95010.66;10501069;28;20411;-57
2023/03/09 11:27:22;;;;;;;0.45;0.40;;;;;;;20.72;43.47;95009.88;10500806;28;20048;-56
2023/03/09 11:32:42;;;;;;;0.75;0.40;;;;;;;20.72;43.25;95005.25;10500549;28;20438;-57
2023/03/09 11:38:06;;;;;;;0.40;0.40;;;;;;;20.71;43.05;95036.16;10500234;28;20048;-57
2023/03/09 11:43:29;;;;;;;1.13;0.45;;;;;;;20.70;42.96;95060.91;10494484;28;20052;-56
2023/03/09 11:49:23;;;;;;;1.73;0.47;;;;;;;20.69;42.64;95030.34;10513299;28;20048;-56
2023/03/09 11:54:43;;;;;;;0.57;0.47;;;;;;;20.68;42.71;95038.81;10499520;28;20102;-56
2023/03/09 12:00:06;;;;;;;1.50;0.40;;;;;;;20.65;42.68;95032.22;10483598;28;20526;-54
2023/03/09 12:05:35;;;;;;;1.77;0.32;;;;;;;20.64;42.67;95035.31;10498826;28;20056;-55
2023/03/09 12:10:56;;;;;;;0.40;0.40;;;;;;;20.62;42.85;95051.94;10497309;28;20052;-55
2023/03/09 12:16:24;;;;;;;1.13;0.32;;;;;;;20.61;42.89;95033.38;10483764;28;20128;-55
2023/03/09 12:21:47;;;;;;;0.40;0.40;;;;;;;20.60;43.05;95045.31;10498635;28;20052;-55
2023/03/09 12:27:19;;;;;;;0.40;0.30;;;;;;;20.58;43.18;95040.28;10498429;28;20049;-55
2023/03/09 12:32:42;;;;;;;2.17;0.40;;;;;;;20.58;43.25;95045.69;10482631;28;20523;-56
2023/03/09 12:38:13;;;;;;;0.40;0.35;;;;;;;20.57;43.25;95044.13;10498055;28;20059;-56
2023/03/09 12:43:43;;;;;;;5.35;1.73;;;;;;;20.56;43.43;95039.84;10497646;28;20118;-56
2023/03/09 12:49:02;;;;;;;14.98;8.40;;;;;;;20.56;43.88;95037.13;10497867;28;20052;-56
2023/03/09 12:54:23;;;;;;;9.95;7.05;;;;;;;20.56;44.15;95047.97;10482672;28;20056;-56
2023/03/09 12:59:43;;;;;;;11.70;6.82;;;;;;;20.55;44.29;95057.25;10510835;28;20423;-56
2023/03/09 13:05:22;;;;;;;9.80;5.80;;;;;;;20.55;44.27;95054.53;10497550;28;20105;-56
2023/03/09 13:10:41;;;;;;;;;;;;;;;20.54;44.66;95070.00;10482369;28;20503;-56
2023/03/09 13:16:34;;;;;;;7.07;4.63;;;;;;;20.52;44.44;95057.97;10517773;28;19920;-56
2023/03/09 13:21:56;;;;;;;6.63;4.50;;;;;;;20.51;44.50;95062.63;10479641;28;20055;-56
2023/03/09 13:27:23;;;;;;;6.00;4.15;;;;;;;20.51;44.35;95064.56;10505462;28;20044;-57
2023/03/09 13:33:05;;;;;;;6.45;3.92;;;;;;;20.49;44.61;95070.31;10490255;28;20462;-56
2023/03/09 13:38:31;;;;;;;5.18;3.40;;;;;;;20.48;44.52;95074.19;10504975;28;20060;-57
2023/03/09 13:43:52;;;;;;;5.47;3.10;;;;;;;20.48;44.53;95078.81;10489533;28;20048;-57
2023/03/09 13:49:22;;;;;;;6.38;3.58;;;;;;;20.47;44.68;95082.69;10489547;28;20044;-55
2023/03/09 13:54:53;;;;;;;5.03;3.28;;;;;;;20.46;44.77;95095.41;10504398;28;20075;-56
2023/03/09 14:00:19;;;;;;;4.43;2.95;;;;;;;20.44;44.63;95096.94;10504122;28;20079;-56
2023/03/09 14:05:38;;;;;;;3.90;2.80;;;;;;;20.44;44.63;95091.53;10488986;28;20091;-56
2023/03/09 14:11:04;;;;;;;4.70;2.97;;;;;;;20.42;44.60;95107.34;10503781;28;20053;-56
2023/03/09 14:16:23;;;;;;;4.10;2.83;;;;;;;20.41;44.58;95106.56;10488345;28;20103;-56
2023/03/09 14:21:49;;;;;;;5.70;2.83;;;;;;;20.42;44.67;95099.22;10502718;28;20053;-56
2023/03/09 14:27:12;;;;;;;3.83;2.60;;;;;;;20.41;44.77;95103.09;10501859;28;20527;-56
2023/03/09 14:32:32;;;;;;;3.25;2.60;;;;;;;20.40;44.79;95102.28;10502908;28;20056;-56
2023/03/09 14:37:52;;;;;;;4.20;2.83;;;;;;;20.41;44.97;95111.22;10502656;28;20051;-55
2023/03/09 14:43:40;;;;;;;3.13;2.35;;;;;;;20.37;45.09;95111.16;10502282;28;20427;-54
2023/03/09 14:49:01;;;;;;;6.30;2.40;;;;;;;20.37;44.98;95121.22;10502341;28;20127;-57
2023/03/09 14:54:20;;;;;;;4.07;2.45;;;;;;;20.37;45.01;95118.50;10502133;28;20110;-56
2023/03/09 14:59:40;;;;;;;4.40;2.40;;;;;;;20.35;44.95;95113.47;10501147;28;20514;-56
2023/03/09 15:04:59;;;;;;;2.88;2.35;;;;;;;20.34;44.83;95120.78;10501795;28;20110;-56
2023/03/09 15:10:19;;;;;;;4.53;2.60;;;;;;;20.32;44.96;95120.38;10514862;28;20045;-55
2023/03/09 15:15:38;;;;;;;2.97;2.20;;;;;;;20.31;44.89;95126.94;10500552;28;20056;-56
2023/03/09 15:20:57;;;;;;;3.38;2.10;;;;;;;20.30;44.92;95117.25;10500403;28;20064;-56
2023/03/09 15:26:16;;;;;;;2.88;2.22;;;;;;;20.28;44.95;95124.19;10500799;28;20102;-56
2023/03/09 15:31:36;;;;;;;2.97;2.00;;;;;;;20.27;44.85;95123.41;10499965;28;20056;-55
2023/03/09 15:36:55;;;;;;;2.78;2.03;;;;;;;20.26;44.88;95121.84;10513606;28;20044;-56
2023/03/09 15:42:15;;;;;;;2.42;2.05;;;;;;;20.25;44.89;95120.31;10499738;28;20052;-56
2023/03/09 15:47:35;;;;;;;2.45;1.70;;;;;;;20.25;44.85;95120.31;10499999;28;20048;-55
2023/03/09 15:52:55;;;;;;;2.55;1.92;;;;;;;20.23;45.43;95119.91;10498069;28;20480;-55
2023/03/09 15:58:15;;;;;;;2.90;1.92;;;;;;;20.23;45.44;95121.81;10499424;28;20052;-55
2023/03/09 16:03:35;;;;;;;2.63;2.03;;;;;;;20.24;45.45;95121.44;10498708;28;20060;-55
2023/03/09 16:08:54;;;;;;;2.33;1.77;;;;;;;20.22;45.41;95118.34;10499152;28;20051;-55
2023/03/09 16:14:14;;;;;;;2.47;1.70;;;;;;;20.22;45.62;95131.06;10498996;28;20121;-57
2023/03/09 16:19:33;;;;;;;2.05;1.75;;;;;;;20.20;44.27;95139.56;10498739;28;20071;-56
2023/03/09 16:24:53;;;;;;;2.50;1.63;;;;;;;20.17;44.77;95151.13;10498672;28;20052;-55
2023/03/09 16:30:13;;;;;;;3.13;2.03;;;;;;;20.15;45.33;95150.72;10499308;28;20429;-56
2023/03/09 16:35:32;;;;;;;4.63;1.60;;;;;;;20.15;45.44;95146.06;10500442;28;20056;-56
2023/03/09 16:40:52;;;;;;;2.15;1.80;;;;;;;20.15;45.58;95158.81;10511571;28;20051;-57
2023/03/09 16:46:17;;;;;;;2.10;1.50;;;;;;;20.14;45.67;95154.53;10499768;28;20053;-55
2023/03/09 16:51:37;;;;;;;2.10;1.40;;;;;;;20.11;45.73;95164.19;10511089;28;20044;-56
2023/03/09 16:56:56;;;;;;;1.80;1.50;;;;;;;20.12;45.70;95178.47;10497775;28;20048;-56
2023/03/09 17:02:16;;;;;;;2.83;1.60;;;;;;;20.09;45.77;95174.59;10497811;28;20053;-55
2023/03/09 17:07:36;;;;;;;2.88;1.60;;;;;;;20.09;45.78;95182.69;10497699;28;20045;-54
2023/03/09 17:12:56;;;;;;;1.85;1.50;;;;;;;20.08;45.80;95193.88;10496886;28;20502;-55
2023/03/09 17:18:15;;;;;;;2.55;1.45;;;;;;;20.07;45.87;95184.19;10497328;28;20106;-54
2023/03/09 17:23:35;;;;;;;2.97;1.27;;;;;;;20.06;45.94;95188.81;10496657;28;20515;-55
2023/03/09 17:28:54;;;;;;;2.25;1.38;;;;;;;20.06;45.86;95188.03;10496562;28;20499;-57
2023/03/09 17:34:14;;;;;;;3.13;1.60;;;;;;;20.03;45.89;95173.34;10510266;28;20052;-57
2023/03/09 17:39:33;;;;;;;3.28;1.60;;;;;;;20.03;45.93;95189.56;10496147;28;20500;-57
2023/03/09 17:44:52;;;;;;;3.03;1.38;;;;;;;20.04;45.99;95179.53;10496169;28;20061;-57
2023/03/09 17:50:12;;;;;;;1.95;1.40;;;;;;;20.04;45.90;95187.63;10496662;28;20045;-56
2023/03/09 17:55:32;;;;;;;3.15;1.30;;;;;;;20.04;45.93;95187.63;10496634;28;20071;-57
2023/03/09 18:00:51;;;;;;;2.42;1.20;;;;;;;20.05;45.88;95191.88;10499569;28;20052;-57
2023/03/09 18:06:15;;;;;;;1.15;1.05;;;;;;;20.04;45.93;95199.22;10504000;28;20052;-57
2023/03/09 18:11:35;;;;;;;1.40;1.20;;;;;;;20.05;45.92;95202.69;10504404;28;20049;-57
2023/03/09 18:16:55;;;;;;;2.60;1.30;;;;;;;20.05;45.86;95210.81;10503535;28;20049;-57
2023/03/09 18:22:16;;;;;;;1.55;1.25;;;;;;;20.05;45.84;95208.91;10503446;28;20052;-57
2023/03/09 18:27:35;;;;;;;4.38;1.60;;;;;;;20.04;45.84;95212.72;10503246;28;20068;-57
2023/03/09 18:32:56;;;;;;;1.92;1.30;;;;;;;20.04;45.83;95207.31;10516471;28;20573;-56
2023/03/09 18:38:16;;;;;;;1.42;1.13;;;;;;;20.04;45.92;95206.56;10502818;28;20114;-57
2023/03/09 18:43:36;;;;;;;2.22;1.30;;;;;;;20.04;46.06;95206.56;10502307;28;20056;-57
2023/03/09 18:48:56;;;;;;;2.50;1.20;;;;;;;20.04;46.08;95209.25;10502524;28;20106;-57
2023/03/09 18:54:16;;;;;;;1.30;1.00;;;;;;;20.03;46.09;95199.56;10501652;28;20420;-56
2023/03/09 18:59:35;;;;;;;2.55;1.15;;;;;;;20.02;46.12;95201.50;10502021;28;20071;-54
2023/03/09 19:04:56;;;;;;;1.42;1.08;;;;;;;20.03;46.30;95203.09;10515244;28;20044;-56
2023/03/09 19:10:16;;;;;;;1.92;1.27;;;;;;;20.04;46.43;95201.16;10500617;28;20499;-54
2023/03/09 19:15:35;;;;;;;2.58;1.20;;;;;;;20.06;46.45;95196.94;10501403;28;20049;-48
2023/03/09 19:20:55;;;;;;;2.03;1.10;;;;;;;20.06;46.35;95193.44;10501313;28;20403;-54
2023/03/09 19:26:14;;;;;;;1.95;1.10;;;;;;;20.07;46.50;95184.19;10500958;28;20055;-52
2023/03/09 19:31:34;;;;;;;2.45;1.10;;;;;;;20.09;46.45;95198.91;10500744;28;20462;-57
2023/03/09 19:36:54;;;;;;;1.88;1.13;;;;;;;20.10;46.59;95196.97;10500464;28;20045;-51
2023/03/09 19:42:13;;;;;;;2.65;1.30;;;;;;;20.12;46.37;95202.81;10500007;28;20101;-57
2023/03/09 19:47:33;;;;;;;2.15;1.10;;;;;;;20.12;46.43;95203.56;10500061;28;20403;-52
2023/03/09 19:52:53;;;;;;;3.75;1.20;;;;;;;20.17;46.66;95198.97;10499841;28;20075;-50
2023/03/09 19:58:12;;;;;;;2.72;1.20;;;;;;;20.20;46.65;95192.84;10512962;28;20086;-53
2023/03/09 20:03:32;;;;;;;2.75;1.10;;;;;;;20.20;46.57;95190.94;10499384;28;20241;-53
2023/03/09 20:08:54;;;;;;;2.35;0.90;;;;;;;20.23;46.81;95189.41;10512616;28;20496;-51
2023/03/09 20:14:14;;;;;;;1.10;0.88;;;;;;;20.25;46.91;95182.50;10512336;28;20052;-53
2023/03/09 20:19:34;;;;;;;1.73;1.15;;;;;;;20.27;46.86;95177.50;10498830;28;20053;-53
2023/03/09 20:24:53;;;;;;;1.95;1.10;;;;;;;20.28;46.88;95168.22;10497335;28;20063;-53
2023/03/09 20:30:13;;;;;;;4.35;1.10;;;;;;;20.33;46.72;95173.31;10497848;28;20053;-48
2023/03/09 20:35:33;;;;;;;2.17;1.20;;;;;;;20.34;46.74;95166.75;10511820;28;20055;-55
2023/03/09 20:40:53;;;;;;;3.72;1.50;;;;;;;20.37;46.68;95178.00;10498230;28;20076;-55
2023/03/09 20:46:15;;;;;;;3.65;1.58;;;;;;;20.38;46.71;95176.84;10497344;28;20505;-55
2023/03/09 20:51:35;;;;;;;15.60;4.25;;;;;;;20.40;47.59;95182.66;10497198;28;20064;-56
2023/03/09 20:56:54;;;;;;;11.27;3.63;;;;;;;20.42;47.16;95169.56;10497878;28;20049;-55
2023/03/09 21:02:14;;;;;;;13.23;3.50;;;;;;;20.42;47.21;95166.84;10497768;28;20139;-55
2023/03/09 21:07:34;;;;;;;12.68;3.40;;;;;;;20.42;47.22;95161.44;10497661;28;20094;-55
2023/03/09 21:12:54;;;;;;;9.10;2.95;;;;;;;20.42;47.14;95173.03;10497613;28;20071;-56
2023/03/09 21:18:14;;;;;;;10.98;3.40;;;;;;;20.44;47.05;95164.53;10497444;28;20072;-56
2023/03/09 21:23:34;;;;;;;9.82;2.88;;;;;;;20.44;46.99;95169.97;10496721;28;20561;-55
2023/03/09 21:28:55;;;;;;;11.88;3.58;;;;;;;20.44;47.05;95165.31;10510470;28;20503;-55
2023/03/09 21:34:15;;;;;;;8.18;2.97;;;;;;;20.45;46.89;95155.31;10499410;28;20075;-55
2023/03/09 21:39:34;;;;;;;8.18;2.72;;;;;;;20.45;46.87;95155.31;10505150;28;20060;-56
2023/03/09 21:44:54;;;;;;;9.80;2.95;;;;;;;20.45;46.76;95145.25;10510267;28;20063;-55
2023/03/09 21:50:13;;;;;;;11.70;3.35;;;;;;;20.44;46.71;95149.09;10548131;22;20060;-74
2023/03/09 21:55:33;;;;;;;11.23;3.40;;;;;;;20.44;47.01;95143.69;10517977;28;20040;-74
2023/03/09 22:00:53;;;;;;;9.88;3.40;;;;;;;20.44;47.21;95137.50;10502775;28;20041;-74
2023/03/09 22:06:22;;;;;;;9.73;3.22;;;;;;;20.44;47.32;95143.69;10502451;28;20041;-75
2023/03/09 22:11:42;;;;;;;10.90;2.70;;;;;;;20.43;47.32;95135.97;10502535;28;20045;-78
2023/03/09 22:17:01;;;;;;;7.68;2.80;;;;;;;20.44;47.60;95134.78;10501987;28;20055;-74
2023/03/09 22:22:20;;;;;;;10.73;2.70;;;;;;;20.43;47.42;95125.91;10501851;28;20041;-74
2023/03/09 22:27:40;;;;;;;7.55;2.63;;;;;;;20.43;47.41;95108.91;10516745;28;20044;-74
2023/03/09 22:32:59;;;;;;;8.93;3.22;;;;;;;20.41;47.46;95101.16;10501503;28;20040;-74
2023/03/09 22:38:19;;;;;;;6.43;2.60;;;;;;;20.40;47.45;95112.34;10516919;28;20098;-74
2023/03/09 22:43:39;;;;;;;6.78;2.28;;;;;;;20.41;47.47;95111.22;10501145;28;20476;-74
2023/03/09 22:48:59;;;;;;;7.03;2.30;;;;;;;20.40;47.35;95104.22;10500118;28;20040;-74
2023/03/09 22:54:18;;;;;;;8.95;2.80;;;;;;;20.39;47.30;95098.06;10500850;28;20050;-74
2023/03/09 22:59:39;;;;;;;5.60;2.10;;;;;;;20.40;47.32;95096.13;10500384;28;20045;-74
2023/03/09 23:04:59;;;;;;;7.38;2.47;;;;;;;20.38;47.14;95088.38;10500566;28;20040;-74
2023/03/09 23:10:19;;;;;;;7.22;2.88;;;;;;;20.37;47.06;95086.81;10500192;28;20040;-74
2023/03/09 23:15:39;;;;;;;7.07;2.47;;;;;;;20.38;47.32;95084.88;10499988;28;20049;-74
2023/03/09 23:20:58;;;;;;;4.80;1.90;;;;;;;20.35;47.19;95070.97;10485768;28;20044;-74
2023/03/09 23:26:21;;;;;;;6.38;2.00;;;;;;;20.33;47.24;95057.03;10471562;28;20056;-74
2023/03/09 23:31:41;;;;;;;7.28;2.08;;;;;;;20.33;47.22;95048.94;10499289;28;20047;-74
2023/03/09 23:37:00;;;;;;;6.57;2.10;;;;;;;20.33;47.12;95057.03;10514178;28;20047;-74
2023/03/09 23:42:20;;;;;;;5.00;1.92;;;;;;;20.32;46.95;95054.69;10498910;28;20071;-74
2023/03/09 23:47:39;;;;;;;4.78;1.70;;;;;;;20.30;47.13;95048.88;10513694;28;20154;-74
2023/03/09 23:52:59;;;;;;;5.95;2.05;;;;;;;20.30;47.08;95041.53;10499924;28;20110;-73
2023/03/09 23:58:18;;;;;;;5.57;1.98;;;;;;;20.28;47.14;95038.44;10483029;28;20036;-74
